Time;durP1;ratioP1;P1;durP2;ratioP2;P2;SDS_P1;SDS_P2;PMS_P1;PMS_P2;Temp;Humidity;BMP_temperature;BMP_pressure;BME280_temperature;BME280_humidity;BME280_pressure;Samples;Min_cycle;Max_cycle;Signal;HPM_P1;HPM_P2
2022/09/19 00:01:55;;;;;;;;;;;;;;;7.98;100.00;101747.44;5021581;28;20335;-38
2022/09/19 00:04:24;;;;;;;;;;;;;;;7.96;100.00;101744.06;5021008;28;20375;-38
2022/09/19 00:06:50;;;;;;;;;;;;;;;7.95;100.00;101747.69;5020933;28;19991;-39
2022/09/19 00:09:18;;;;;;;;;;;;;;;7.95;100.00;101752.16;5021475;28;19920;-38
2022/09/19 00:11:45;;;;;;;;;;;;;;;7.93;100.00;101749.63;5021381;28;19921;-38
2022/09/19 00:14:14;;;;;;;;;;;;;;;7.91;100.00;101748.91;5019378;28;20380;-39
2022/09/19 00:16:40;;;;;;;;;;;;;;;7.90;100.00;101751.69;5017382;28;19992;-38
2022/09/19 00:19:06;;;;;;;;;;;;;;;7.88;100.00;101749.16;5020366;28;20544;-39
2022/09/19 00:21:33;;;;;;;;;;;;;;;7.85;100.00;101742.25;5021267;28;19925;-38
2022/09/19 00:26:43;;;;;;;;;;;;;;;7.83;100.00;101738.88;5021019;28;19978;-39
2022/09/19 00:29:08;;;;;;;;;;;;;;;7.82;100.00;101745.16;5019801;28;19965;-38
2022/09/19 00:31:34;;;;;;;;;;;;;;;7.80;100.00;101739.09;5020872;28;20014;-41
2022/09/19 00:34:00;;;;;;;;;;;;;;;7.80;100.00;101747.09;5020736;28;19927;-38
2022/09/19 00:36:26;;;;;;;;;;;;;;;7.80;100.00;101751.56;5020046;28;19914;-38
2022/09/19 00:38:51;;;;;;;;;;;;;;;7.80;100.00;101755.06;5020769;28;20014;-38
2022/09/19 00:41:21;;;;;;;;;;;;;;;7.80;100.00;101752.41;5019751;28;19927;-39
2022/09/19 00:43:46;;;;;;;;;;;;;;;7.78;100.00;101759.66;5020625;28;19913;-39
2022/09/19 00:46:11;;;;;;;;;;;;;;;7.78;100.00;101758.81;5019800;28;20244;-39
2022/09/19 00:48:41;;;;;;;;;;;;;;;7.75;100.00;101749.25;5021502;28;19913;-38
2022/09/19 00:51:08;;;;;;;;;;;;;;;7.75;100.00;101756.41;5018891;28;20282;-38
2022/09/19 00:53:33;;;;;;;;;;;;;;;7.71;100.00;101746.97;5020599;28;19951;-39
2022/09/19 00:55:58;;;;;;;;;;;;;;;7.76;100.00;101750.13;5020147;28;20208;-40
2022/09/19 00:58:27;;;;;;;;;;;;;;;7.75;100.00;101756.41;5020708;28;19913;-38
2022/09/19 01:00:52;;;;;;;;;;;;;;;7.77;100.00;101752.66;5018004;28;19917;-38
2022/09/19 01:03:18;;;;;;;;;;;;;;;7.79;100.00;101758.69;5020783;28;20313;-38
2022/09/19 01:06:06;;;;;;;;;;;;;;;7.82;100.00;101766.44;5017329;28;19913;-38
2022/09/19 01:08:50;;;;;;;;;;;;;;;7.82;100.00;101765.56;5015929;28;19964;-39
2022/09/19 01:11:21;;;;;;;;;;;;;;;7.80;100.00;101770.19;5020104;28;19920;-38
2022/09/19 01:13:52;;;;;;;;;;;;;;;7.79;100.00;101773.78;5019409;28;20408;-38
2022/09/19 01:16:20;;;;;;;;;;;;;;;7.78;100.00;101772.94;5020081;28;19917;-38
2022/09/19 01:19:02;;;;;;;;;;;;;;;7.79;100.00;101776.44;5020835;28;20324;-38
2022/09/19 01:21:39;;;;;;;;;;;;;;;7.73;100.00;101772.47;5018955;28;19921;-38
2022/09/19 01:24:19;;;;;;;;;;;;;;;7.81;100.00;101772.72;5019289;28;20350;-39
2022/09/19 01:27:00;;;;;;;;;;;;;;;7.86;100.00;101777.69;5019766;28;19925;-38
2022/09/19 01:29:39;;;;;;;;;;;;;;;7.91;100.00;101782.63;5019287;28;20008;-38
2022/09/19 01:32:08;;;;;;;;;;;;;;;7.98;100.00;101775.88;5018053;28;19957;-38
2022/09/19 01:34:40;;;;;;;;;;;;;;;8.03;100.00;101781.69;5018974;28;20008;-38
2022/09/19 01:37:12;;;;;;;;;;;;;;;8.11;100.00;101773.06;5019260;28;19947;-39
2022/09/19 01:39:40;;;;;;;;;;;;;;;8.17;100.00;101781.41;5019947;28;19989;-39
2022/09/19 01:42:05;;;;;;;;;;;;;;;8.23;100.00;101788.06;5017578;28;19981;-38
2022/09/19 01:44:31;;;;;;;;;;;;;;;8.29;100.00;101786.72;5019398;28;19960;-39
2022/09/19 01:47:13;;;;;;;;;;;;;;;8.34;100.00;101784.56;5017712;28;20384;-39
2022/09/19 01:49:56;;;;;;;;;;;;;;;8.37;100.00;101787.81;5019185;28;19960;-38
2022/09/19 01:52:40;;;;;;;;;;;;;;;8.41;100.00;101783.06;5019877;28;19995;-39
2022/09/19 01:55:23;;;;;;;;;;;;;;;8.43;100.00;101785.66;5019269;28;20039;-38
2022/09/19 01:58:07;;;;;;;;;;;;;;;8.41;100.00;101775.94;5011232;28;19963;-38
2022/09/19 02:00:35;;;;;;;;;;;;;;;8.37;100.00;101778.97;5033359;28;20025;-38
2022/09/19 02:03:07;;;;;;;;;;;;;;;8.32;100.00;101778.50;5019505;28;20113;-39
2022/09/19 02:05:35;;;;;;;;;;;;;;;8.19;100.00;101774.16;5018228;28;20383;-38
2022/09/19 02:08:03;;;;;;;;;;;;;;;8.21;100.00;101790.00;5019699;28;19932;-39
2022/09/19 02:10:32;;;;;;;;;;;;;;;8.16;100.00;101792.16;5019127;28;19995;-38
2022/09/19 02:13:00;;;;;;;;;;;;;;;8.11;100.00;101783.72;5019378;28;19917;-38
2022/09/19 02:15:28;;;;;;;;;;;;;;;8.10;100.00;101788.19;5018529;28;20347;-39
2022/09/19 02:18:04;;;;;;;;;;;;;;;8.07;100.00;101783.13;5019172;28;19982;-39
2022/09/19 02:20:32;;;;;;;;;;;;;;;8.03;100.00;101781.69;5017904;28;19936;-39
2022/09/19 02:23:14;;;;;;;;;;;;;;;8.00;100.00;101798.72;5018944;28;19987;-38
2022/09/19 02:25:42;;;;;;;;;;;;;;;7.98;100.00;101799.81;5019092;28;19912;-38
2022/09/19 02:28:11;;;;;;;;;;;;;;;7.95;100.00;101798.22;5017654;28;20048;-38
2022/09/19 02:30:36;;;;;;;;;;;;;;;7.91;100.00;101803.91;5017967;28;20360;-39
2022/09/19 02:33:06;;;;;;;;;;;;;;;7.87;100.00;101802.47;5019242;28;19925;-39
2022/09/19 02:35:40;;;;;;;;;;;;;;;7.84;100.00;101807.06;5016512;28;20124;-39
2022/09/19 02:38:11;;;;;;;;;;;;;;;7.84;100.00;101803.53;5018633;28;19988;-38
2022/09/19 02:40:36;;;;;;;;;;;;;;;7.84;100.00;101811.50;5018493;28;19913;-39
2022/09/19 02:43:06;;;;;;;;;;;;;;;7.80;100.00;101805.59;5019409;28;19972;-39
2022/09/19 02:45:34;;;;;;;;;;;;;;;7.80;100.00;101810.91;5017978;28;19925;-38
2022/09/19 02:48:08;;;;;;;;;;;;;;;7.80;100.00;101802.94;5017014;28;19925;-38
2022/09/19 02:50:52;;;;;;;;;;;;;;;7.80;100.00;101810.91;5004352;28;19913;-38
2022/09/19 02:53:21;;;;;;;;;;;;;;;7.79;100.00;101814.53;5018523;28;19971;-38
2022/09/19 02:55:50;;;;;;;;;;;;;;;7.79;100.00;101817.22;5018808;28;19921;-39
2022/09/19 02:58:17;;;;;;;;;;;;;;;7.78;100.00;101815.50;5018687;28;20064;-38
2022/09/19 03:00:46;;;;;;;;;;;;;;;7.78;100.00;101809.34;5016158;28;20199;-38
2022/09/19 03:06:05;;;;;;;;;;;;;;;7.79;100.00;101814.53;5017413;28;19923;-39
2022/09/19 03:08:35;;;;;;;;;;;;;;;7.80;100.00;101813.56;5018807;28;19974;-38
2022/09/19 03:11:06;;;;;;;;;;;;;;;7.82;100.00;101814.31;5017664;28;19920;-39
2022/09/19 03:13:33;;;;;;;;;;;;;;;7.87;100.00;101815.75;5018027;28;20022;-38
2022/09/19 03:16:08;;;;;;;;;;;;;;;7.91;100.00;101814.53;5018160;28;20049;-38
2022/09/19 03:18:34;;;;;;;;;;;;;;;7.93;100.00;101817.94;5018778;28;20438;-38
2022/09/19 03:21:02;;;;;;;;;;;;;;;7.95;100.00;101810.69;5016769;28;19945;-38
2022/09/19 03:23:47;;;;;;;;;;;;;;;7.96;100.00;101815.91;5021045;28;20403;-40
2022/09/19 03:26:14;;;;;;;;;;;;;;;7.96;100.00;101815.03;5021315;28;20101;-39
2022/09/19 03:28:39;;;;;;;;;;;;;;;7.95;100.00;101816.84;5021357;28;19940;-39
2022/09/19 03:31:05;;;;;;;;;;;;;;;7.94;100.00;101811.66;5021486;28;19913;-39
2022/09/19 03:33:31;;;;;;;;;;;;;;;7.94;100.00;101812.50;5022375;28;20375;-39
2022/09/19 03:35:57;;;;;;;;;;;;;;;7.95;100.00;101816.84;5020497;28;20968;-39
2022/09/19 03:38:23;;;;;;;;;;;;;;;7.96;100.00;101818.56;5020461;28;20079;-39
2022/09/19 03:40:48;;;;;;;;;;;;;;;7.97;100.00;101817.56;5022198;28;19913;-39
2022/09/19 03:43:13;;;;;;;;;;;;;;;7.98;100.00;101813.94;5020998;28;19913;-38
2022/09/19 03:45:39;;;;;;;;;;;;;;;7.98;100.00;101818.44;5020765;28;20371;-38
2022/09/19 03:48:04;;;;;;;;;;;;;;;8.00;100.00;101814.66;5020983;28;20438;-39
2022/09/19 03:50:29;;;;;;;;;;;;;;;8.00;100.00;101821.81;5020674;28;19928;-38
2022/09/19 03:52:54;;;;;;;;;;;;;;;8.05;100.00;101827.63;5021572;28;19913;-39
2022/09/19 03:55:20;;;;;;;;;;;;;;;8.06;100.00;101823.97;5021579;28;19917;-38
2022/09/19 03:57:45;;;;;;;;;;;;;;;8.05;100.00;101822.31;5021997;28;19917;-39
2022/09/19 04:00:10;;;;;;;;;;;;;;;8.05;100.00;101826.78;5020221;28;20841;-38
2022/09/19 04:02:35;;;;;;;;;;;;;;;8.03;100.00;101826.91;5021782;28;19921;-38
2022/09/19 04:05:02;;;;;;;;;;;;;;;8.01;100.00;101827.03;5018193;28;19928;-38
2022/09/19 04:07:27;;;;;;;;;;;;;;;8.01;100.00;101823.50;5021829;28;20296;-39
2022/09/19 04:09:54;;;;;;;;;;;;;;;7.99;100.00;101825.44;5020801;28;19917;-39
2022/09/19 04:12:19;;;;;;;;;;;;;;;7.95;100.00;101832.81;5021837;28;20079;-39
2022/09/19 04:14:44;;;;;;;;;;;;;;;7.93;100.00;101836.56;5020512;28;20320;-39
2022/09/19 04:17:11;;;;;;;;;;;;;;;7.90;100.00;101836.81;5020237;28;19920;-38
2022/09/19 04:19:36;;;;;;;;;;;;;;;7.89;100.00;101835.97;5019488;28;19921;-39
2022/09/19 04:22:01;;;;;;;;;;;;;;;7.89;100.00;101835.09;5021539;28;20307;-39
2022/09/19 04:24:29;;;;;;;;;;;;;;;7.90;100.00;101842.97;5021135;28;19913;-40
2022/09/19 04:26:54;;;;;;;;;;;;;;;7.92;100.00;101838.38;5013984;28;19921;-38
2022/09/19 04:29:20;;;;;;;;;;;;;;;7.94;100.00;101840.91;5014375;28;19966;-38
2022/09/19 04:31:45;;;;;;;;;;;;;;;7.93;100.00;101845.38;5008427;28;19963;-39
2022/09/19 04:34:14;;;;;;;;;;;;;;;7.92;100.00;101841.03;5019002;28;19917;-38
2022/09/19 04:36:40;;;;;;;;;;;;;;;7.92;100.00;101840.19;5020929;28;20000;-38
2022/09/19 04:39:06;;;;;;;;;;;;;;;7.93;100.00;101844.56;5020842;28;20015;-38
2022/09/19 04:41:33;;;;;;;;;;;;;;;7.94;100.00;101847.09;5021542;28;20252;-39
2022/09/19 04:43:58;;;;;;;;;;;;;;;7.97;100.00;101851.31;5019972;28;19923;-39
2022/09/19 04:46:23;;;;;;;;;;;;;;;7.96;100.00;101850.47;5020385;28;19917;-39
2022/09/19 04:48:49;;;;;;;;;;;;;;;7.97;100.00;101857.47;5020430;28;19913;-39
2022/09/19 04:51:14;;;;;;;;;;;;;;;8.00;100.00;101856.41;5019278;28;19979;-39
2022/09/19 04:53:39;;;;;;;;;;;;;;;8.02;100.00;101857.97;5020933;28;20162;-39
2022/09/19 04:56:04;;;;;;;;;;;;;;;8.01;100.00;101853.63;5020645;28;19913;-39
2022/09/19 04:58:30;;;;;;;;;;;;;;;8.03;100.00;101861.50;5017798;28;19986;-39
2022/09/19 05:00:55;;;;;;;;;;;;;;;8.05;100.00;101862.22;5000298;28;20369;-39
2022/09/19 05:03:23;;;;;;;;;;;;;;;8.11;100.00;101860.88;5000650;28;20030;-38
2022/09/19 05:05:51;;;;;;;;;;;;;;;8.16;100.00;101864.88;4999025;28;19918;-38
2022/09/19 05:08:24;;;;;;;;;;;;;;;8.20;100.00;101869.00;5000813;28;19918;-38
2022/09/19 05:10:51;;;;;;;;;;;;;;;8.22;100.00;101863.56;4999919;28;19925;-39
2022/09/19 05:13:17;;;;;;;;;;;;;;;8.26;100.00;101869.47;5007945;28;19920;-39
2022/09/19 05:15:43;;;;;;;;;;;;;;;8.30;100.00;101873.56;5020190;28;20393;-39
2022/09/19 05:18:10;;;;;;;;;;;;;;;8.33;100.00;101873.34;5010657;28;19929;-39
2022/09/19 05:20:36;;;;;;;;;;;;;;;8.35;100.00;101866.94;4998968;28;20715;-39
2022/09/19 05:23:01;;;;;;;;;;;;;;;8.35;100.00;101868.72;5000942;28;19991;-39
2022/09/19 05:25:27;;;;;;;;;;;;;;;8.33;100.00;101873.34;5008146;28;19913;-39
2022/09/19 05:27:52;;;;;;;;;;;;;;;8.30;100.00;101881.56;5004180;28;19936;-39
2022/09/19 05:30:21;;;;;;;;;;;;;;;8.26;100.00;101880.94;5010346;28;19929;-38
2022/09/19 05:32:46;;;;;;;;;;;;;;;8.25;100.00;101883.72;4999609;28;19959;-38
2022/09/19 05:35:12;;;;;;;;;;;;;;;8.26;100.00;101883.63;4997951;28;19917;-39
2022/09/19 05:37:40;;;;;;;;;;;;;;;8.29;100.00;101885.22;5000704;28;20399;-38
2022/09/19 05:40:06;;;;;;;;;;;;;;;8.31;100.00;101884.09;4999287;28;20483;-38
2022/09/19 05:42:31;;;;;;;;;;;;;;;8.34;100.00;101896.34;5000763;28;20024;-38
2022/09/19 05:44:57;;;;;;;;;;;;;;;8.32;100.00;101892.97;5010344;28;19967;-39
2022/09/19 05:47:22;;;;;;;;;;;;;;;8.32;100.00;101896.47;4999447;28;19973;-38
2022/09/19 05:49:47;;;;;;;;;;;;;;;8.35;100.00;101906.88;4998447;28;19963;-39
2022/09/19 05:54:56;;;;;;;;;;;;;;;8.49;100.00;101903.16;5015154;28;20399;-39
2022/09/19 05:57:22;;;;;;;;;;;;;;;8.55;100.00;101904.47;5010845;28;19921;-39
2022/09/19 05:59:47;;;;;;;;;;;;;;;8.62;100.00;101904.81;4997944;28;19971;-39
2022/09/19 06:02:12;;;;;;;;;;;;;;;8.67;100.00;101913.28;4999631;28;19917;-39
2022/09/19 06:04:37;;;;;;;;;;;;;;;8.72;100.00;101908.44;5010722;28;19917;-38
2022/09/19 06:07:03;;;;;;;;;;;;;;;8.78;100.00;101915.97;5003480;28;19922;-38
2022/09/19 06:09:29;;;;;;;;;;;;;;;8.87;100.00;101914.38;5006202;28;19928;-39
2022/09/19 06:11:54;;;;;;;;;;;;;;;8.90;100.00;101914.97;4998724;28;19918;-39
2022/09/19 06:14:23;;;;;;;;;;;;;;;8.94;100.00;101919.09;5003256;28;19918;-39
2022/09/19 06:16:48;;;;;;;;;;;;;;;8.98;100.00;101924.16;5015467;28;20007;-39
2022/09/19 06:19:14;;;;;;;;;;;;;;;9.03;100.00;101913.97;5014440;28;20088;-40
2022/09/19 06:21:39;;;;;;;;;;;;;;;9.07;100.00;101912.75;5018001;28;19972;-40
2022/09/19 06:24:07;;;;;;;;;;;;;;;9.11;100.00;101920.38;5012599;28;19987;-39
2022/09/19 06:26:33;;;;;;;;;;;;;;;9.12;100.00;101924.72;5011844;28;20448;-39
2022/09/19 06:29:01;;;;;;;;;;;;;;;9.12;100.00;101923.88;4998173;28;19996;-39
2022/09/19 06:31:27;;;;;;;;;;;;;;;9.10;100.00;101929.34;4999625;28;19914;-39
2022/09/19 06:33:52;;;;;;;;;;;;;;;9.11;100.00;101924.84;4999031;28;20076;-39
2022/09/19 06:36:17;;;;;;;;;;;;;;;9.12;100.00;101922.06;5001873;28;20316;-39
2022/09/19 06:38:43;;;;;;;;;;;;;;;9.19;100.00;101926.91;4999468;28;19914;-39
2022/09/19 06:41:08;;;;;;;;;;;;;;;9.26;100.00;101925.41;4998271;28;19917;-39
2022/09/19 06:43:33;;;;;;;;;;;;;;;9.34;100.00;101934.47;5010187;28;19917;-38
2022/09/19 06:45:59;;;;;;;;;;;;;;;9.48;100.00;101929.81;5004402;28;20016;-38
2022/09/19 06:48:24;;;;;;;;;;;;;;;9.65;100.00;101933.75;5016930;28;20284;-38
2022/09/19 06:50:49;;;;;;;;;;;;;;;9.77;100.00;101939.88;5005026;28;19917;-38
2022/09/19 06:53:15;;;;;;;;;;;;;;;9.94;100.00;101949.13;5014829;28;19943;-37
2022/09/19 06:55:40;;;;;;;;;;;;;;;10.09;100.00;101946.00;5011032;28;20160;-39
2022/09/19 06:58:06;;;;;;;;;;;;;;;10.29;100.00;101946.13;4999605;28;19917;-38
2022/09/19 07:00:35;;;;;;;;;;;;;;;10.52;100.00;101954.00;5007317;28;19924;-39
2022/09/19 07:03:01;;;;;;;;;;;;;;;10.71;100.00;101958.56;5010973;28;19922;-38
2022/09/19 07:05:27;;;;;;;;;;;;;;;10.79;100.00;101964.09;5011896;28;20864;-39
2022/09/19 07:07:53;;;;;;;;;;;;;;;10.87;100.00;101968.78;5020532;28;19928;-38
2022/09/19 07:10:21;;;;;;;;;;;;;;;10.89;100.00;101970.31;5021243;28;19920;-38
2022/09/19 07:13:05;;;;;;;;;;;;;;;10.95;100.00;101969.78;5018930;28;20062;-39
2022/09/19 07:15:31;;;;;;;;;;;;;;;10.99;100.00;101973.03;5009891;28;19928;-38
2022/09/19 07:17:56;;;;;;;;;;;;;;;11.04;100.00;101975.31;5002963;28;19913;-38
2022/09/19 07:20:23;;;;;;;;;;;;;;;11.14;100.00;101979.69;5001308;28;19925;-38
2022/09/19 07:22:58;;;;;;;;;;;;;;;11.25;100.00;101988.56;5015971;28;19917;-39
2022/09/19 07:25:24;;;;;;;;;;;;;;;11.33;100.00;101978.03;5013291;28;20326;-38
2022/09/19 07:27:53;;;;;;;;;;;;;;;11.38;100.00;101990.00;5004988;28;19967;-38
2022/09/19 07:30:18;;;;;;;;;;;;;;;11.45;100.00;101982.28;5021913;28;19928;-38
2022/09/19 07:32:43;;;;;;;;;;;;;;;11.55;100.00;101993.81;5019855;28;20136;-38
2022/09/19 07:35:08;;;;;;;;;;;;;;;11.64;100.00;101988.63;5000472;28;19929;-38
2022/09/19 07:37:33;;;;;;;;;;;;;;;11.74;100.00;101990.34;5002364;28;20276;-38
2022/09/19 07:39:59;;;;;;;;;;;;;;;11.84;100.00;101992.16;5005436;28;20008;-38
2022/09/19 07:42:24;;;;;;;;;;;;;;;11.92;100.00;101987.81;5021132;28;20276;-41
2022/09/19 07:44:49;;;;;;;;;;;;;;;11.96;100.00;101984.88;5033392;28;19920;-43
2022/09/19 07:47:26;;;;;;;;;;;;;;;12.05;100.00;101992.91;5020835;28;20319;-44
2022/09/19 07:49:54;;;;;;;;;;;;;;;12.18;100.00;101992.56;5005185;28;20226;-42
2022/09/19 07:52:19;;;;;;;;;;;;;;;12.33;100.00;101998.34;5018234;28;20309;-42
2022/09/19 07:54:44;;;;;;;;;;;;;;;12.36;100.00;102005.25;5008592;28;19928;-44
2022/09/19 07:57:10;;;;;;;;;;;;;;;12.26;100.00;102007.94;5004138;28;19921;-45
2022/09/19 07:59:35;;;;;;;;;;;;;;;12.10;100.00;102000.47;5001714;28;19920;-44
2022/09/19 08:02:00;;;;;;;;;;;;;;;12.01;100.00;102009.38;5002335;28;20008;-44
2022/09/19 08:04:26;;;;;;;;;;;;;;;11.98;100.00;102012.34;5001072;28;20076;-42
2022/09/19 08:06:51;;;;;;;;;;;;;;;11.94;100.00;102011.78;5001850;28;19918;-42
2022/09/19 08:09:17;;;;;;;;;;;;;;;11.98;100.00;102017.69;5001360;28;20269;-41
2022/09/19 08:11:42;;;;;;;;;;;;;;;12.20;100.00;102014.69;5011886;28;19920;-42
2022/09/19 08:14:07;;;;;;;;;;;;;;;12.52;100.00;102023.41;5017008;28;20287;-42
2022/09/19 08:16:32;;;;;;;;;;;;;;;12.78;100.00;102023.59;5021968;28;20344;-42
2022/09/19 08:18:58;;;;;;;;;;;;;;;13.00;100.00;102017.00;5021577;28;19924;-42
2022/09/19 08:21:24;;;;;;;;;;;;;;;13.11;100.00;102024.03;5020507;28;20365;-42
2022/09/19 08:23:49;;;;;;;;;;;;;;;13.18;100.00;102031.31;5021155;28;19913;-47
2022/09/19 08:26:14;;;;;;;;;;;;;;;13.21;100.00;102025.66;5021544;28;20395;-43
2022/09/19 08:28:39;;;;;;;;;;;;;;;13.20;100.00;102024.00;5011903;28;19994;-42
2022/09/19 08:31:05;;;;;;;;;;;;;;;13.18;100.00;102028.63;5014348;28;19997;-43
2022/09/19 08:33:31;;;;;;;;;;;;;;;13.15;100.00;102031.66;5019007;28;19917;-43
2022/09/19 08:36:00;;;;;;;;;;;;;;;13.13;100.00;102038.13;5018431;28;19951;-41
2022/09/19 08:38:26;;;;;;;;;;;;;;;13.33;100.00;102039.75;5006037;28;20374;-41
2022/09/19 08:41:09;;;;;;;;;;;;;;;13.56;100.00;102039.31;5019948;28;19917;-43
2022/09/19 08:43:39;;;;;;;;;;;;;;;13.76;100.00;102043.59;5020166;28;19927;-43
2022/09/19 08:46:05;;;;;;;;;;;;;;;13.94;100.00;102042.75;5014822;28;20014;-45
2022/09/19 08:48:45;;;;;;;;;;;;;;;14.18;100.00;102044.78;5019645;28;20031;-42
2022/09/19 08:51:14;;;;;;;;;;;;;;;14.39;100.00;102039.06;5015113;28;19917;-42
2022/09/19 08:53:43;;;;;;;;;;;;;;;14.52;100.00;102038.66;5016329;28;19986;-44
2022/09/19 08:56:11;;;;;;;;;;;;;;;14.62;100.00;102043.97;5018081;28;19920;-44
2022/09/19 08:58:42;;;;;;;;;;;;;;;14.65;100.00;102041.81;5016401;28;19914;-42
2022/09/19 09:01:08;;;;;;;;;;;;;;;14.81;100.00;102042.91;5012093;28;19983;-42
2022/09/19 09:03:49;;;;;;;;;;;;;;;14.97;100.00;102044.81;5013944;28;19925;-46
2022/09/19 09:06:46;;;;;;;;;;;;;;;15.16;100.00;102035.69;4999282;28;20344;-43
2022/09/19 09:09:11;;;;;;;;;;;;;;;15.30;100.00;102041.25;4993315;28;19917;-43
2022/09/19 09:11:48;;;;;;;;;;;;;;;15.42;100.00;102049.88;5001171;28;19920;-45
2022/09/19 09:14:23;;;;;;;;;;;;;;;15.47;100.00;102041.31;5015286;28;19943;-43
2022/09/19 09:16:57;;;;;;;;;;;;;;;15.45;100.00;102040.66;5003892;28;20283;-44
2022/09/19 09:19:33;;;;;;;;;;;;;;;15.55;100.00;102048.59;4999740;28;20343;-45
2022/09/19 09:22:01;;;;;;;;;;;;;;;15.64;100.00;102044.91;4999306;28;20262;-44
2022/09/19 09:24:29;;;;;;;;;;;;;;;15.72;100.00;102050.31;5001094;28;19914;-43
2022/09/19 09:26:57;;;;;;;;;;;;;;;15.85;100.00;102039.06;5000409;28;19929;-42
2022/09/19 09:29:27;;;;;;;;;;;;;;;15.93;98.42;102035.53;5001463;28;20047;-43
2022/09/19 09:32:00;;;;;;;;;;;;;;;16.01;99.42;102038.25;4999083;28;19921;-43
2022/09/19 09:34:28;;;;;;;;;;;;;;;16.13;99.60;102034.19;5008839;28;19968;-43
2022/09/19 09:36:59;;;;;;;;;;;;;;;16.33;100.00;102031.16;5010779;28;20012;-45
2022/09/19 09:39:32;;;;;;;;;;;;;;;16.50;92.80;102027.44;5007870;28;20217;-41
2022/09/19 09:41:59;;;;;;;;;;;;;;;16.52;95.81;102032.66;5001107;28;19997;-44
2022/09/19 09:44:43;;;;;;;;;;;;;;;16.59;94.84;102030.94;4998641;28;19952;-42
2022/09/19 09:47:21;;;;;;;;;;;;;;;16.91;98.56;102029.22;5000068;28;19967;-43
2022/09/19 09:49:47;;;;;;;;;;;;;;;17.31;93.51;102030.03;4998754;28;20423;-46
2022/09/19 09:52:24;;;;;;;;;;;;;;;17.17;85.78;102041.59;4999751;28;20020;-45
2022/09/19 09:57:38;;;;;;;;;;;;;;;16.14;88.72;102053.91;5002495;28;20028;-43
2022/09/19 10:05:57;;;;;;;;;;;;;;;16.05;93.29;102044.97;4997230;28;19928;-44
2022/09/19 10:08:28;;;;;;;;;;;;;;;16.15;92.19;102056.44;4999924;28;19922;-44
2022/09/19 10:11:02;;;;;;;;;;;;;;;16.03;91.70;102052.38;4999179;28;19940;-41
2022/09/19 10:13:31;;;;;;;;;;;;;;;15.89;95.92;102056.59;5008365;28;20216;-45
2022/09/19 10:16:02;;;;;;;;;;;;;;;15.81;97.74;102072.75;5016965;28;20012;-44
2022/09/19 10:18:30;;;;;;;;;;;;;;;15.60;95.25;102065.09;5017806;28;19917;-43
2022/09/19 10:20:55;;;;;;;;;;;;;;;15.56;95.62;102064.56;5003751;28;19917;-43
2022/09/19 10:23:25;;;;;;;;;;;;;;;15.56;95.49;102072.63;5009001;28;20408;-42
2022/09/19 10:25:54;;;;;;;;;;;;;;;15.54;95.17;102074.66;5015549;28;19988;-41
2022/09/19 10:28:49;;;;;;;;;;;;;;;15.60;97.20;102074.00;5004580;28;19987;-44
2022/09/19 10:31:29;;;;;;;;;;;;;;;15.55;92.93;102067.44;5003798;28;20119;-41
2022/09/19 10:33:54;;;;;;;;;;;;;;;15.58;99.61;102069.78;5007392;28;20421;-44
2022/09/19 10:36:21;;;;;;;;;;;;;;;15.68;96.26;102065.09;5002348;28;19925;-42
2022/09/19 10:38:54;;;;;;;;;;;;;;;15.79;95.38;102063.97;4998439;28;19953;-42
2022/09/19 10:41:20;;;;;;;;;;;;;;;15.86;95.04;102067.69;4997241;28;20288;-43
2022/09/19 10:43:50;;;;;;;;;;;;;;;15.83;94.07;102066.19;5013261;28;19921;-43
2022/09/19 10:46:35;;;;;;;;;;;;;;;15.77;93.28;102064.16;5013160;28;19940;-42
2022/09/19 10:49:03;;;;;;;;;;;;;;;16.00;96.38;102075.13;5012994;28;19921;-43
2022/09/19 10:51:31;;;;;;;;;;;;;;;16.26;89.26;102065.19;5013673;28;19913;-41
2022/09/19 10:53:56;;;;;;;;;;;;;;;16.22;90.38;102068.25;5000787;28;19937;-44
2022/09/19 10:56:24;;;;;;;;;;;;;;;16.31;88.70;102069.09;5014975;28;19917;-45
2022/09/19 10:59:01;;;;;;;;;;;;;;;16.45;90.53;102064.84;5011227;28;19917;-43
2022/09/19 11:01:27;;;;;;;;;;;;;;;16.55;90.14;102070.91;5013227;28;19917;-41
2022/09/19 11:04:00;;;;;;;;;;;;;;;16.60;88.69;102068.53;5014182;28;20910;-42
2022/09/19 11:06:25;;;;;;;;;;;;;;;16.56;85.82;102069.03;5004414;28;20448;-42
2022/09/19 11:08:51;;;;;;;;;;;;;;;16.53;89.94;102067.53;4996591;28;19918;-41
2022/09/19 11:11:21;;;;;;;;;;;;;;;16.59;92.08;102058.75;5007277;28;20422;-44
2022/09/19 11:14:05;;;;;;;;;;;;;;;16.62;88.73;102068.38;5013834;28;19932;-44
2022/09/19 11:16:37;;;;;;;;;;;;;;;16.59;90.88;102052.53;5010778;28;19921;-42
2022/09/19 11:19:03;;;;;;;;;;;;;;;16.64;93.14;102066.34;4996418;28;19929;-43
2022/09/19 11:21:44;;;;;;;;;;;;;;;16.68;90.66;102056.88;5006740;28;19984;-46
2022/09/19 11:24:25;;;;;;;;;;;;;;;16.57;87.82;102066.19;4996279;28;20214;-44
2022/09/19 11:26:53;;;;;;;;;;;;;;;16.61;87.21;102072.06;4995915;28;19917;-42
2022/09/19 11:29:18;;;;;;;;;;;;;;;16.73;87.68;102059.06;5013744;28;19932;-43
2022/09/19 11:31:47;;;;;;;;;;;;;;;16.78;85.42;102062.94;5002227;28;19921;-43
2022/09/19 11:34:36;;;;;;;;;;;;;;;16.82;87.35;102070.69;5007746;28;20544;-43
2022/09/19 11:37:25;;;;;;;;;;;;;;;16.70;88.67;102068.34;5012380;28;20034;-46
2022/09/19 11:40:09;;;;;;;;;;;;;;;16.48;89.17;102069.03;5009999;28;19917;-43
2022/09/19 11:42:37;;;;;;;;;;;;;;;16.26;90.56;102063.34;5011436;28;20032;-44
2022/09/19 11:45:10;;;;;;;;;;;;;;;16.19;90.34;102065.88;5015364;28;19925;-45
2022/09/19 11:47:50;;;;;;;;;;;;;;;16.33;90.62;102058.97;5018982;28;20345;-42
2022/09/19 11:50:16;;;;;;;;;;;;;;;16.81;87.61;102050.94;5016211;28;19917;-43
2022/09/19 11:53:18;;;;;;;;;;;;;;;17.30;80.97;102040.00;5019618;28;20019;-44
2022/09/19 11:55:43;;;;;;;;;;;;;;;17.91;79.51;102042.03;5002940;28;20471;-41
2022/09/19 11:58:29;;;;;;;;;;;;;;;18.24;75.13;102039.06;5015738;28;20489;-42
2022/09/19 12:01:05;;;;;;;;;;;;;;;18.62;79.49;102039.88;5014405;28;20221;-41
2022/09/19 12:03:52;;;;;;;;;;;;;;;19.06;79.21;102040.94;5016247;28;19983;-43
2022/09/19 12:06:29;;;;;;;;;;;;;;;18.96;74.11;102041.22;5014736;28;20368;-43
2022/09/19 12:08:55;;;;;;;;;;;;;;;18.58;79.89;102033.13;5016948;28;20015;-41
2022/09/19 12:11:24;;;;;;;;;;;;;;;18.19;79.25;102038.75;5018504;28;20004;-44
2022/09/19 12:13:49;;;;;;;;;;;;;;;17.81;79.34;102036.81;5016425;28;19929;-43
2022/09/19 12:16:17;;;;;;;;;;;;;;;17.56;78.25;102040.72;5016404;28;20295;-43
2022/09/19 12:18:52;;;;;;;;;;;;;;;17.56;78.12;102043.41;5018915;28;19924;-43
2022/09/19 12:21:22;;;;;;;;;;;;;;;17.88;82.98;102042.38;5016833;28;19917;-45
2022/09/19 12:26:40;;;;;;;;;;;;;;;18.20;80.62;102038.56;5017373;28;20020;-42
2022/09/19 12:29:17;;;;;;;;;;;;;;;18.45;81.55;102043.78;5017065;28;20391;-41
2022/09/19 12:31:45;;;;;;;;;;;;;;;18.43;82.81;102046.66;5014529;28;19975;-44
2022/09/19 12:34:26;;;;;;;;;;;;;;;18.06;80.50;102048.34;5014170;28;19964;-42
2022/09/19 12:36:57;;;;;;;;;;;;;;;17.82;82.63;102057.44;5014743;28;19913;-44
2022/09/19 12:39:30;;;;;;;;;;;;;;;17.50;80.59;102056.63;5016503;28;20442;-42
2022/09/19 12:42:03;;;;;;;;;;;;;;;17.32;83.57;102050.63;5014846;28;20492;-42
2022/09/19 12:44:34;;;;;;;;;;;;;;;16.99;86.10;102048.06;5018007;28;19956;-42
2022/09/19 12:47:09;;;;;;;;;;;;;;;16.78;88.14;102059.38;5018401;28;19964;-42
2022/09/19 12:49:35;;;;;;;;;;;;;;;16.50;87.88;102053.56;5014753;28;20047;-45
2022/09/19 12:52:01;;;;;;;;;;;;;;;16.54;90.37;102046.81;5013543;28;19921;-45
2022/09/19 12:54:26;;;;;;;;;;;;;;;18.08;85.12;102043.56;5016232;28;19917;-42
2022/09/19 12:56:58;;;;;;;;;;;;;;;19.65;77.97;102056.19;5012921;28;20528;-44
2022/09/19 12:59:24;;;;;;;;;;;;;;;20.70;75.08;102063.88;5017510;28;20271;-42
2022/09/19 13:02:11;;;;;;;;;;;;;;;21.63;69.00;102049.91;5017050;28;19928;-43
2022/09/19 13:04:47;;;;;;;;;;;;;;;22.39;61.96;102055.03;5017713;28;20054;-43
2022/09/19 13:07:22;;;;;;;;;;;;;;;23.00;63.72;102056.59;5013028;28;21129;-41